Saturday, July 21, 2018, 2:30 AM CDT
Back to Local

KSLN, Salina Municipal Airport

Location: Salina, KS, United States Lat: 38.783
Local Time: 2:30 AM CDT ( 7:30 GMT) Lon: -97.65
Time Zone: US/Central Elev: 1272 ft

Show me the last for .
Show Decoded

2018-07-21 01:53 METAR KSLN 210653Z AUTO 31006KT 10SM FEW100 23/19 A3002 RMK AO2 SLP151 T02280194
                 =
2018-07-21 00:53 METAR KSLN 210553Z AUTO 09003KT 10SM CLR 24/19 A3001 RMK AO2 LTG DSNT S SLP148
                 T02440194 10344 20244 403500228 51026 =
2018-07-20 23:53 METAR KSLN 210453Z AUTO 08005KT 10SM CLR 26/18 A2998 RMK AO2 SLP137 T02560183 =
2018-07-20 22:53 METAR KSLN 210353Z 06008KT 10SM CLR 27/18 A2997 RMK AO2 LTG DSNT S AND SW SLP131
                 T02670183 =
2018-07-20 21:53 METAR KSLN 210253Z 06008KT 10SM CLR 28/21 A2993 RMK AO2 SLP120 T02830206 53012 =
2018-07-20 20:53 METAR KSLN 210153Z 06005KT 10SM CLR 29/21 A2991 RMK AO2 SLP112 T02940206 =
2018-07-20 19:53 METAR KSLN 210053Z 07008KT 10SM CLR 32/19 A2990 RMK AO2 SLP108 T03170194 =
2018-07-20 19:01 METAR KSLN 210001Z 12009KT 10SM CLR 34/17 A2990 RMK AO2 T03390172 =
2018-07-20 18:53 METAR KSLN 202353Z AUTO 11009KT 10SM CLR 34/17 A2990 RMK AO2 SLP108 T03440172
                 10350 20322 50001 =
2018-07-20 17:53 METAR KSLN 202253Z 12012KT 10SM CLR 34/17 A2990 RMK AO2 SLP110 T03440167 =
2018-07-20 16:53 METAR KSLN 202153Z 07011KT 10SM CLR 34/20 A2991 RMK AO2 SLP113 T03390200 =
2018-07-20 15:53 METAR KSLN 202053Z 08013KT 10SM CLR 34/20 A2989 RMK AO2 LTG DSNT E SLP107
                 T03390200 58002 =
2018-07-20 14:53 METAR KSLN 201953Z 07013KT 10SM CLR 33/21 A2990 RMK AO2 LTG DSNT N AND NW SLP110
                 T03280206 =
2018-07-20 13:53 METAR KSLN 201853Z 05013G20KT 10SM CLR 33/22 A2990 RMK AO2 SLP110 T03330222 =
2018-07-20 12:53 METAR KSLN 201753Z 07011KT 10SM CLR 34/20 A2990 RMK AO2 SLP108 T03390200 10339
                 20233 55000 =
2018-07-20 11:53 METAR KSLN 201653Z 09007KT 10SM CLR 33/21 A2989 RMK AO2 SLP105 T03280211 =
2018-07-20 10:53 METAR KSLN 201553Z 11007KT 10SM CLR 31/22 A2989 RMK AO2 SLP107 T03060217 =
2018-07-20 09:53 METAR KSLN 201453Z 13007KT 10SM CLR 28/21 A2990 RMK AO2 SLP110 T02830211 51006 =
2018-07-20 08:53 METAR KSLN 201353Z 09006KT 10SM CLR 26/21 A2990 RMK AO2 SLP108 T02610211 =
2018-07-20 07:53 METAR KSLN 201253Z 05005KT 10SM CLR 24/21 A2989 RMK AO2 SLP106 T02440206 =
2018-07-20 06:53 METAR KSLN 201153Z 03004KT 10SM CLR 23/21 A2988 RMK AO2 SLP104 70020 T02330206
                 10261 20228 53006 =
2018-07-20 05:53 METAR KSLN 201053Z AUTO 08003KT 10SM CLR 24/21 A2987 RMK AO2 SLP099 T02390206 =
2018-07-20 04:53 METAR KSLN 200953Z AUTO 00000KT 10SM CLR 24/21 A2986 RMK AO2 SLP096 T02390206 =
2018-07-20 03:53 METAR KSLN 200853Z AUTO 00000KT 10SM CLR 24/21 A2986 RMK AO2 SLP097 T02440206
                 51002 =
2018-07-20 02:53 METAR KSLN 200753Z AUTO 09004KT 10SM CLR 26/20 A2986 RMK AO2 SLP098 T02610200 =

Support USWX by starting your Amazon purchase here.